Aeroporto :
LOGIN :

Iscrizione | Disclaimer

   EN    FR    IT 

 










Sommario :    VFR   VFR Marginale   IFR   IFR Intensivo   IFR Molto Intensivo
Visibilità : 
Base nubi : 
>= 8 km
>= 3000ft
5 / 8 km
1000 / 3000 ft
1500m / 5 km
500 / 1000 ft
800 / 1500m
200 / 500 ft
< 800m
< 200 ft
Simboli :   Temporali  Nebbia  Neve Forte  Precipitazioni Forti  Vento > 20 kt
SIGMETs :   Varie  Temporali  Ghiacco  Turbolenza  Onda orograficha  Ceneri Vulcaniche







- Altitudine del aeroporto : 1325 ft
- Codice IATA : EBU
- Carte del aeroporto


LFMH - St-Etienne Boutheon

ULTIMO METAR :
  • 150330Z AUTO VRB02KT 9999 OVC020 M03/M07 Q1022 TEMPO 0600 FZFG VV///

METARs OBSOLETI :
  • 150300Z AUTO VRB03KT 9999 OVC020 M02/M06 Q1022 TEMPO 0600 FZFG VV///
  • 150230Z AUTO 02003KT 360V070 9999 OVC020 M02/M06 Q1022 TEMPO 0600 FZFG VV///
  • 150200Z AUTO VRB02KT 9999 OVC021 M02/M06 Q1022
  • 150130Z AUTO VRB03KT 9999 OVC022 M02/M06 Q1022
  • 150100Z AUTO 01003KT 320V050 9999 OVC022 M02/M06 Q1022

TAF TAF LFMH
Valido dal 15 a 03 ore il 16 a 03 ore UTC


150200Z 1503/1603 VRB02KT 8000 OVC020
TEMPO 1503/1510 OVC011
PROB30
TEMPO 1503/1508 0600 FZFG VV///
BECMG 1510/1512 FEW012 OVC100
BECMG 1517/1519 16010KT
TEMPO 1517/1602 4000 -RA
PROB40
TEMPO 1520/1602 BKN011
TEMPO 1602/1603 0700 BCFG
ATIS : +33 4 77 36 17 51
Nessun NOTAM noto per questo aeroporto.



MetMap, La meteo Aeronautica in un colpo d'occhio ! - Copyright ORBIFLY Dicembre 2007 - Disclaimer

ORBIFLY MET'MAP TEAM :

Programmazione e sviluppo : Alexandra Zaïnal
Concezione e sviluppo : Baudouin d'Aumeries
Co-Programmazione e sviluppo : Marc-Olivier Méhu
Supporto tecnico e logistico : Manuel Goepfert
Aiuto per la traduzione : Arnaldo La Scala

Contatto : metmap@orbifly.com




FONTI E CREDITI :

   NOAA